Time;durP1;ratioP1;P1;durP2;ratioP2;P2;SDS_P1;SDS_P2;PMS_P1;PMS_P2;Temp;Humidity;BMP_temperature;BMP_pressure;BME280_temperature;BME280_humidity;BME280_pressure;Samples;Min_cycle;Max_cycle;Signal;HPM_P1;HPM_P2
2022/04/01 00:02:23;;;;;;;;;;;21.00;28.80;;;;;;6295008;27;20036;-43
2022/04/01 00:05:25;;;;;;;;;;;20.90;28.80;;;;;;6298738;27;20038;-41
2022/04/01 00:08:26;;;;;;;2.70;1.13;;;21.00;28.90;;;;;;6298072;27;20023;-43
2022/04/01 00:11:28;;;;;;;3.88;1.33;;;21.00;28.80;;;;;;6286184;28;20112;-44
2022/04/01 00:14:30;;;;;;;2.15;1.05;;;21.00;28.90;;;;;;6286217;27;20904;-46
2022/04/01 00:17:31;;;;;;;3.83;1.33;;;20.80;28.80;;;;;;6277258;27;20779;-43
2022/04/01 00:20:34;;;;;;;3.42;1.30;;;21.00;28.80;;;;;;6278506;28;20043;-47
2022/04/01 00:23:35;;;;;;;5.13;1.48;;;21.00;28.80;;;;;;6273105;28;20037;-41
2022/04/01 00:26:37;;;;;;;3.78;1.45;;;20.90;28.80;;;;;;6277578;28;20047;-44
2022/04/01 00:29:39;;;;;;;3.60;1.20;;;20.90;28.80;;;;;;6284799;27;20047;-43
2022/04/01 00:32:40;;;;;;;4.07;1.15;;;20.90;28.80;;;;;;6286036;28;20943;-41
2022/04/01 00:35:43;;;;;;;;;;;20.90;28.90;;;;;;6262466;28;20048;-43
2022/04/01 00:38:45;;;;;;;4.68;1.35;;;20.90;28.80;;;;;;6298190;27;19928;-40
2022/04/01 00:41:46;;;;;;;;;;;20.90;28.80;;;;;;6291497;27;20046;-44
2022/04/01 00:44:48;;;;;;;4.60;1.30;;;20.90;28.80;;;;;;6275042;28;19992;-41
2022/04/01 00:47:55;;;;;;;4.20;1.52;;;20.90;28.80;;;;;;6300236;27;21120;-42
2022/04/01 00:50:58;;;;;;;4.32;1.40;;;20.80;28.90;;;;;;6285625;27;20042;-42
2022/04/01 00:53:59;;;;;;;4.57;1.90;;;20.90;28.90;;;;;;6290849;27;20113;-43
2022/04/01 00:57:01;;;;;;;;;;;20.80;29.30;;;;;;6290406;28;20050;-43
2022/04/01 01:00:04;;;;;;;6.05;1.48;;;20.80;28.80;;;;;;6286073;28;19919;-43
2022/04/01 01:03:13;;;;;;;7.35;2.13;;;20.80;28.80;;;;;;6288974;27;20188;-42
2022/04/01 01:06:16;;;;;;;6.78;2.15;;;20.90;28.90;;;;;;6291219;28;20039;-44
2022/04/01 01:09:19;;;;;;;4.97;1.40;;;20.90;28.90;;;;;;6277662;27;20040;-44
2022/04/01 01:12:21;;;;;;;7.38;1.83;;;20.80;28.80;;;;;;6258597;28;20138;-42
2022/04/01 01:15:25;;;;;;;4.55;1.95;;;20.80;28.80;;;;;;6286778;28;20736;-42
2022/04/01 01:18:27;;;;;;;4.45;1.42;;;20.90;28.80;;;;;;6264535;28;20120;-42
2022/04/01 01:21:30;;;;;;;4.05;1.40;;;20.70;28.70;;;;;;6279752;28;20040;-43
2022/04/01 01:24:32;;;;;;;4.97;1.70;;;20.80;28.70;;;;;;6275820;28;20051;-42
2022/04/01 01:27:36;;;;;;;6.07;1.80;;;20.80;28.60;;;;;;6275164;28;20027;-44
2022/04/01 01:30:37;;;;;;;4.43;1.50;;;20.80;28.60;;;;;;6270937;28;20032;-43
2022/04/01 01:33:40;;;;;;;;;;;20.70;28.50;;;;;;6274021;28;20195;-41
2022/04/01 01:36:42;;;;;;;2.58;1.50;;;20.80;28.50;;;;;;6272880;28;19928;-44
2022/04/01 01:39:44;;;;;;;3.13;1.30;;;20.80;28.50;;;;;;6268804;28;21074;-42
2022/04/01 01:42:46;;;;;;;2.42;1.20;;;20.80;28.50;;;;;;6279575;27;20043;-42
2022/04/01 01:45:48;;;;;;;;;;;20.80;28.40;;;;;;6277365;27;20145;-42
2022/04/01 01:48:50;;;;;;;3.30;1.02;;;20.70;28.30;;;;;;6277517;27;19934;-43
2022/04/01 01:55:08;;;;;;;2.60;0.95;;;20.70;28.30;;;;;;6275866;28;20139;-41
2022/04/01 01:58:10;;;;;;;2.55;0.80;;;20.70;28.20;;;;;;6268686;28;20052;-42
2022/04/01 02:01:12;;;;;;;2.10;0.98;;;20.60;28.10;;;;;;6289209;27;20050;-45
2022/04/01 02:04:14;;;;;;;2.55;0.80;;;20.80;28.10;;;;;;6263854;28;20073;-43
2022/04/01 02:07:15;;;;;;;;;;;20.70;28.10;;;;;;6269753;28;20047;-44
2022/04/01 02:10:17;;;;;;;1.92;0.45;;;20.60;28.00;;;;;;6280096;28;19947;-43
2022/04/01 02:13:19;;;;;;;1.30;0.50;;;20.80;28.10;;;;;;6291992;27;20074;-44
2022/04/01 02:16:21;;;;;;;2.78;0.55;;;20.60;27.90;;;;;;6273814;28;20885;-42
2022/04/01 02:19:23;;;;;;;1.35;0.50;;;20.70;27.90;;;;;;6294376;27;20040;-42
2022/04/01 02:22:25;;;;;;;2.10;0.73;;;20.60;27.90;;;;;;6264087;28;20220;-44
2022/04/01 02:25:28;;;;;;;1.27;0.30;;;20.60;27.70;;;;;;6288980;28;20116;-41
2022/04/01 02:28:30;;;;;;;1.35;0.50;;;20.60;27.70;;;;;;6281231;28;20044;-44
2022/04/01 02:31:32;;;;;;;2.88;0.35;;;20.60;27.60;;;;;;6277063;27;20311;-42
2022/04/01 02:34:53;;;;;;;1.30;0.45;;;20.60;27.60;;;;;;6286243;27;20047;-43
2022/04/01 02:37:55;;;;;;;;;;;20.50;27.50;;;;;;6274330;28;20035;-42
2022/04/01 02:40:58;;;;;;;0.65;0.30;;;20.70;27.50;;;;;;6281312;28;19919;-43
2022/04/01 02:44:09;;;;;;;0.70;0.30;;;20.60;27.50;;;;;;6295520;27;20045;-43
2022/04/01 02:47:12;;;;;;;0.95;0.50;;;20.60;27.40;;;;;;6273829;28;20973;-42
2022/04/01 02:50:14;;;;;;;1.13;0.47;;;20.60;27.40;;;;;;6277854;27;20094;-41
2022/04/01 02:53:16;;;;;;;0.75;0.30;;;20.60;27.30;;;;;;6290162;27;20112;-42
2022/04/01 02:56:18;;;;;;;0.85;0.20;;;20.50;27.30;;;;;;6267801;27;20043;-43
2022/04/01 02:59:20;;;;;;;0.30;0.20;;;20.40;27.20;;;;;;6292738;27;20999;-43
2022/04/01 03:02:22;;;;;;;0.98;0.20;;;20.60;27.20;;;;;;6292974;27;20929;-42
2022/04/01 03:05:24;;;;;;;0.65;0.25;;;20.60;27.20;;;;;;6282344;28;20167;-43
2022/04/01 03:08:26;;;;;;;0.68;0.30;;;20.60;27.10;;;;;;6288292;27;20203;-41
2022/04/01 03:11:29;;;;;;;0.45;0.20;;;20.50;27.10;;;;;;6288803;27;20040;-43
2022/04/01 03:14:31;;;;;;;0.50;0.30;;;20.60;27.00;;;;;;6273670;28;20117;-43
2022/04/01 03:17:52;;;;;;;;;;;20.60;27.00;;;;;;6279871;28;20106;-42
2022/04/01 03:21:01;;;;;;;0.40;0.20;;;20.50;27.00;;;;;;6283364;27;20063;-42
2022/04/01 03:24:04;;;;;;;1.58;0.20;;;20.50;27.10;;;;;;6288887;27;20048;-45
2022/04/01 03:27:06;;;;;;;0.32;0.20;;;20.50;27.00;;;;;;6294951;28;20115;-42
2022/04/01 03:30:09;;;;;;;0.80;0.13;;;20.60;27.00;;;;;;6296510;27;20158;-41
2022/04/01 03:33:11;;;;;;;0.17;0.10;;;20.50;26.90;;;;;;6285629;28;20305;-42
2022/04/01 03:36:13;;;;;;;;;;;20.50;26.90;;;;;;6281045;27;20043;-42
2022/04/01 03:39:19;;;;;;;0.38;0.20;;;20.60;27.00;;;;;;6289358;28;20119;-41
2022/04/01 03:42:27;;;;;;;0.45;0.30;;;20.50;27.00;;;;;;6279094;28;20044;-42
2022/04/01 03:45:29;;;;;;;0.10;0.03;;;20.60;27.00;;;;;;6266844;27;20043;-41
2022/04/01 03:48:48;;;;;;;0.35;0.20;;;20.50;26.90;;;;;;6290235;27;20067;-42
2022/04/01 03:51:54;;;;;;;0.30;0.20;;;20.50;26.90;;;;;;6290344;28;20032;-42
2022/04/01 03:54:56;;;;;;;0.20;0.10;;;20.50;26.90;;;;;;6287178;28;20117;-44
2022/04/01 03:58:27;;;;;;;0.32;0.20;;;20.50;26.90;;;;;;6288198;27;20160;-42
2022/04/01 04:01:49;;;;;;;0.40;0.10;;;20.50;26.80;;;;;;6274820;28;20074;-42
2022/04/01 04:04:54;;;;;;;0.10;0.10;;;20.40;27.30;;;;;;6276124;28;20039;-44
2022/04/01 04:07:57;;;;;;;0.35;0.20;;;20.40;26.80;;;;;;6276621;28;20832;-43
2022/04/01 04:11:00;;;;;;;0.25;0.20;;;20.50;26.80;;;;;;6285831;27;20147;-44
2022/04/01 04:14:17;;;;;;;0.30;0.10;;;20.40;26.80;;;;;;6289071;28;20850;-42
2022/04/01 04:17:30;;;;;;;0.20;0.10;;;20.40;26.80;;;;;;6294818;27;20152;-45
2022/04/01 04:20:35;;;;;;;0.43;0.25;;;20.50;26.80;;;;;;6299821;27;20965;-44
2022/04/01 04:23:46;;;;;;;0.40;0.20;;;20.40;26.80;;;;;;6298320;27;20036;-44
2022/04/01 04:26:51;;;;;;;0.20;0.10;;;20.40;26.80;;;;;;6293493;27;20027;-42
2022/04/01 04:30:03;;;;;;;0.32;0.10;;;20.40;26.80;;;;;;6291867;27;20039;-42
2022/04/01 04:33:11;;;;;;;0.10;0.10;;;20.40;26.80;;;;;;6256097;28;20028;-44
2022/04/01 04:36:17;;;;;;;0.17;0.10;;;20.40;27.30;;;;;;6262712;28;20047;-45
2022/04/01 04:39:31;;;;;;;0.50;0.30;;;20.50;26.80;;;;;;6292159;28;20077;-42
2022/04/01 04:42:33;;;;;;;0.40;0.20;;;20.40;26.80;;;;;;6278654;28;20058;-45
2022/04/01 04:45:38;;;;;;;0.30;0.20;;;20.50;26.80;;;;;;6273325;27;20035;-43
2022/04/01 04:48:42;;;;;;;0.20;0.10;;;20.40;26.70;;;;;;6277421;28;20086;-44
2022/04/01 04:51:47;;;;;;;0.80;0.28;;;20.40;26.70;;;;;;6262381;28;20099;-42
2022/04/01 04:54:57;;;;;;;0.10;0.10;;;20.40;26.70;;;;;;6254933;28;20050;-43
2022/04/01 04:58:04;;;;;;;0.38;0.10;;;20.30;26.70;;;;;;6272429;28;20051;-41
2022/04/01 05:01:21;;;;;;;0.20;0.20;;;20.30;26.70;;;;;;6262915;28;20035;-42
2022/04/01 05:04:39;;;;;;;0.70;0.28;;;20.30;26.70;;;;;;6274136;28;20120;-42
2022/04/01 05:08:05;;;;;;;0.88;0.20;;;20.40;26.80;;;;;;6286086;27;20124;-43
2022/04/01 05:11:37;;;;;;;0.13;0.13;;;20.40;26.80;;;;;;6296731;27;20082;-42
2022/04/01 05:14:58;;;;;;;0.45;0.20;;;20.20;26.70;;;;;;6290554;27;20070;-42
2022/04/01 05:18:09;;;;;;;0.40;0.20;;;20.20;26.70;;;;;;6293360;27;20241;-42
2022/04/01 05:21:19;;;;;;;0.98;0.28;;;20.30;26.80;;;;;;6280249;28;21044;-44
2022/04/01 05:24:27;;;;;;;0.13;0.10;;;20.30;26.80;;;;;;6277164;28;20035;-44
2022/04/01 05:27:37;;;;;;;0.20;0.20;;;20.40;26.90;;;;;;6278931;28;20040;-42
2022/04/01 05:31:00;;;;;;;0.40;0.20;;;20.30;26.90;;;;;;6289939;27;20023;-41
2022/04/01 05:34:09;;;;;;;0.65;0.20;;;20.30;26.90;;;;;;6271633;28;21086;-41
2022/04/01 05:37:18;;;;;;;0.20;0.20;;;20.20;26.90;;;;;;6287870;28;20042;-43
2022/04/01 05:40:22;;;;;;;0.22;0.10;;;20.30;27.00;;;;;;6285265;28;20032;-44
2022/04/01 05:43:25;;;;;;;0.57;0.20;;;20.30;27.00;;;;;;6259875;28;20114;-44
2022/04/01 05:46:39;;;;;;;0.20;0.10;;;20.40;27.00;;;;;;6272205;28;20040;-41
2022/04/01 05:49:45;;;;;;;0.30;0.13;;;20.30;27.00;;;;;;6254870;27;20046;-43
2022/04/01 05:52:52;;;;;;;0.57;0.22;;;20.20;27.00;;;;;;6254959;28;20142;-44
2022/04/01 05:55:55;;;;;;;0.25;0.20;;;20.10;27.00;;;;;;6245292;28;20039;-42
2022/04/01 05:58:57;;;;;;;0.32;0.20;;;20.30;27.10;;;;;;6251689;28;20035;-42
2022/04/01 06:02:21;;;;;;;0.28;0.20;;;20.20;27.00;;;;;;6264222;28;20929;-42
2022/04/01 06:05:29;;;;;;;0.38;0.20;;;20.30;27.10;;;;;;6253077;27;20036;-46
2022/04/01 06:08:44;;;;;;;0.32;0.30;;;20.50;27.20;;;;;;6260304;28;20229;-43
2022/04/01 06:12:00;;;;;;;1.20;0.20;;;20.30;27.10;;;;;;6267593;28;20941;-42
2022/04/01 06:15:21;;;;;;;0.82;0.10;;;20.20;27.10;;;;;;6248091;27;20052;-42
2022/04/01 06:18:52;;;;;;;0.40;0.10;;;20.30;27.20;;;;;;6252975;28;20036;-44
2022/04/01 06:22:03;;;;;;;0.30;0.20;;;20.20;27.10;;;;;;6262718;28;20123;-45
2022/04/01 06:25:13;;;;;;;0.35;0.15;;;20.10;27.10;;;;;;6241568;28;20114;-41
2022/04/01 06:28:24;;;;;;;0.25;0.13;;;20.20;27.20;;;;;;6261201;27;20087;-42
2022/04/01 06:31:31;;;;;;;0.35;0.10;;;20.10;27.20;;;;;;6226054;28;20047;-44
2022/04/01 06:34:47;;;;;;;1.35;0.20;;;20.20;27.20;;;;;;6244028;27;20113;-42
2022/04/01 06:38:17;;;;;;;0.30;0.10;;;20.30;27.30;;;;;;6223270;28;20174;-43
2022/04/01 06:41:21;;;;;;;0.35;0.20;;;20.20;27.20;;;;;;6240835;27;20036;-42
2022/04/01 06:44:37;;;;;;;0.20;0.10;;;20.10;27.20;;;;;;6216678;27;20297;-43
2022/04/01 06:47:58;;;;;;;0.90;0.10;;;20.30;27.20;;;;;;6227355;27;20159;-44
2022/04/01 06:51:04;;;;;;;0.40;0.20;;;20.30;27.30;;;;;;6224603;28;20356;-43
2022/04/01 06:54:17;;;;;;;0.20;0.20;;;20.30;27.30;;;;;;6231113;27;21000;-42
2022/04/01 06:57:39;;;;;;;0.40;0.17;;;20.30;27.30;;;;;;6182658;27;21226;-45
2022/04/01 07:00:50;;;;;;;0.90;0.20;;;20.30;27.60;;;;;;6169062;27;21333;-42
2022/04/01 07:03:52;;;;;;;0.68;0.30;;;20.30;27.40;;;;;;6145346;28;20228;-44
2022/04/01 07:06:55;;;;;;;1.88;0.22;;;20.40;27.50;;;;;;6140384;28;20043;-46
2022/04/01 07:09:58;;;;;;;0.30;0.10;;;20.30;27.60;;;;;;6193886;27;22187;-43
2022/04/01 07:12:59;;;;;;;0.38;0.20;;;20.40;27.60;;;;;;6184738;27;20083;-47
2022/04/01 07:16:01;;;;;;;0.25;0.17;;;20.30;27.60;;;;;;6164220;27;20071;-43
2022/04/01 07:19:03;;;;;;;1.83;0.30;;;20.30;27.70;;;;;;6162889;28;20065;-44
2022/04/01 07:22:06;;;;;;;0.40;0.20;;;20.50;27.80;;;;;;6192702;27;20043;-42
2022/04/01 07:25:10;;;;;;;1.00;0.85;;;20.40;27.80;;;;;;6190579;27;20040;-42
2022/04/01 07:28:11;;;;;;;0.70;0.10;;;20.40;27.80;;;;;;6179041;27;20051;-42
2022/04/01 07:34:36;;;;;;;0.75;0.20;;;20.50;27.90;;;;;;6171710;27;20133;-42
2022/04/01 07:37:38;;;;;;;1.05;0.30;;;20.60;27.90;;;;;;6195634;27;21290;-44
2022/04/01 07:40:53;;;;;;;0.28;0.20;;;20.60;28.00;;;;;;6184287;27;20040;-43
2022/04/01 07:43:55;;;;;;;1.08;0.20;;;20.60;28.00;;;;;;6170144;28;21103;-42
2022/04/01 07:47:03;;;;;;;0.63;0.30;;;20.70;28.00;;;;;;6170373;28;20957;-41
2022/04/01 07:50:05;;;;;;;0.30;0.10;;;20.50;27.90;;;;;;6138628;27;21012;-42
2022/04/01 07:53:07;;;;;;;0.45;0.20;;;20.60;27.90;;;;;;6165612;27;20163;-44
2022/04/01 07:56:10;;;;;;;1.08;0.30;;;20.60;27.90;;;;;;6150575;27;20167;-44
2022/04/01 07:59:14;;;;;;;1.73;0.30;;;20.60;27.90;;;;;;6130633;28;20227;-43
2022/04/01 08:02:17;;;;;;;0.20;0.13;;;20.70;27.90;;;;;;6123169;28;20483;-46
2022/04/01 08:05:19;;;;;;;0.22;0.20;;;20.60;27.80;;;;;;6135301;28;20058;-41
2022/04/01 08:08:20;;;;;;;1.17;0.40;;;20.90;27.90;;;;;;6135619;28;20059;-45
2022/04/01 08:11:23;;;;;;;0.60;0.38;;;20.80;27.80;;;;;;6152354;28;20046;-44
2022/04/01 08:14:24;;;;;;;0.50;0.20;;;20.80;27.80;;;;;;6130829;28;20257;-44
2022/04/01 08:17:26;;;;;;;;;;;20.80;27.70;;;;;;6140790;27;20157;-42
2022/04/01 08:20:28;;;;;;;1.55;0.22;;;20.80;27.70;;;;;;6175901;27;21129;-44
2022/04/01 08:23:34;;;;;;;0.90;0.20;;;20.90;27.70;;;;;;6162049;27;21294;-43
2022/04/01 08:26:36;;;;;;;0.30;0.20;;;20.90;27.60;;;;;;6177893;27;20787;-42
2022/04/01 08:29:38;;;;;;;0.30;0.22;;;20.90;27.50;;;;;;6176748;27;20049;-42
2022/04/01 08:32:40;;;;;;;1.48;0.20;;;21.00;27.50;;;;;;6139558;27;20074;-42
2022/04/01 08:35:42;;;;;;;0.35;0.10;;;20.90;27.40;;;;;;6126795;28;20075;-43
2022/04/01 08:38:44;;;;;;;0.70;0.30;;;20.90;27.40;;;;;;6124401;28;20321;-43
2022/04/01 08:41:46;;;;;;;0.28;0.10;;;20.90;27.40;;;;;;6173112;27;20040;-42
2022/04/01 08:44:48;;;;;;;0.43;0.20;;;20.80;27.80;;;;;;6171818;27;20460;-43
2022/04/01 08:47:50;;;;;;;0.20;0.17;;;21.00;27.30;;;;;;6157487;28;20063;-42
2022/04/01 08:50:52;;;;;;;0.90;0.22;;;20.80;27.30;;;;;;6176107;27;20040;-43
2022/04/01 08:53:53;;;;;;;0.65;0.22;;;21.00;27.30;;;;;;6154291;27;20102;-43
2022/04/01 08:56:55;;;;;;;0.30;0.20;;;21.00;27.30;;;;;;6182419;27;20166;-43
2022/04/01 09:00:34;;;;;;;0.43;0.20;;;21.00;27.20;;;;;;6200458;27;20041;-43
2022/04/01 09:03:36;;;;;;;0.32;0.15;;;21.00;27.20;;;;;;6157350;28;20040;-44
2022/04/01 09:06:41;;;;;;;0.60;0.13;;;21.00;27.20;;;;;;6159136;27;20040;-43
2022/04/01 09:09:44;;;;;;;1.00;0.20;;;21.10;27.20;;;;;;6180347;27;21397;-43
2022/04/01 09:12:51;;;;;;;0.90;0.20;;;21.00;27.10;;;;;;6155031;27;20046;-43
2022/04/01 09:15:53;;;;;;;0.35;0.20;;;21.10;27.10;;;;;;6142102;27;20043;-44
2022/04/01 09:18:56;;;;;;;0.40;0.13;;;21.00;27.10;;;;;;6152947;27;20047;-42
2022/04/01 09:21:58;;;;;;;0.32;0.20;;;21.10;27.10;;;;;;6147148;28;20110;-43
2022/04/01 09:25:02;;;;;;;0.95;0.20;;;21.00;27.00;;;;;;6153481;28;20360;-43
2022/04/01 09:28:05;;;;;;;0.40;0.13;;;21.00;27.00;;;;;;6171421;27;20081;-42
2022/04/01 09:31:10;;;;;;;0.40;0.20;;;21.10;27.00;;;;;;6155171;27;20121;-44
2022/04/01 09:34:37;;;;;;;0.30;0.15;;;21.00;26.90;;;;;;6132486;27;20040;-46
2022/04/01 09:37:43;;;;;;;0.47;0.25;;;21.10;26.90;;;;;;6167092;27;20133;-45
2022/04/01 09:40:50;;;;;;;0.45;0.10;;;21.10;26.80;;;;;;6185511;27;20151;-44
2022/04/01 09:44:01;;;;;;;0.45;0.20;;;21.00;26.70;;;;;;6127070;28;20036;-42
2022/04/01 09:47:04;;;;;;;0.10;0.10;;;21.20;26.70;;;;;;6147610;28;20067;-42
2022/04/01 09:50:13;;;;;;;0.40;0.10;;;21.10;26.60;;;;;;6100869;28;20069;-44
2022/04/01 09:53:17;;;;;;;0.17;0.10;;;21.20;26.70;;;;;;6184750;27;22436;-43
2022/04/01 09:56:34;;;;;;;0.30;0.17;;;21.20;26.60;;;;;;6159527;27;20071;-43
2022/04/01 09:59:36;;;;;;;0.25;0.10;;;21.20;26.60;;;;;;6139031;27;20071;-43
2022/04/01 10:02:39;;;;;;;0.30;0.20;;;21.30;26.50;;;;;;6151857;27;20044;-43
2022/04/01 10:05:42;;;;;;;0.20;0.20;;;21.30;26.60;;;;;;6135799;27;20043;-45
2022/04/01 10:08:45;;;;;;;0.35;0.25;;;21.30;26.50;;;;;;6141745;27;21046;-41
2022/04/01 10:11:48;;;;;;;0.55;0.28;;;21.30;26.40;;;;;;6188024;27;21156;-43
2022/04/01 10:14:55;;;;;;;0.75;0.30;;;21.30;26.40;;;;;;6202032;27;20039;-46
2022/04/01 10:18:01;;;;;;;0.52;0.30;;;21.30;26.30;;;;;;6198414;27;26315;-42
2022/04/01 10:21:04;;;;;;;0.38;0.20;;;21.20;26.30;;;;;;6210297;27;20079;-42
2022/04/01 10:24:15;;;;;;;0.73;0.25;;;21.30;26.30;;;;;;6190544;27;20240;-44
2022/04/01 10:27:25;;;;;;;1.38;0.28;;;21.30;26.20;;;;;;6188817;27;20231;-42
2022/04/01 10:30:31;;;;;;;0.82;0.22;;;21.30;26.10;;;;;;6186464;28;20970;-44
2022/04/01 10:33:35;;;;;;;1.23;0.20;;;21.30;26.10;;;;;;6174410;28;20166;-43
2022/04/01 10:36:42;;;;;;;0.25;0.20;;;21.20;26.00;;;;;;6171557;27;20142;-42
2022/04/01 10:39:48;;;;;;;0.40;0.20;;;21.40;26.10;;;;;;6203507;27;20114;-42
2022/04/01 10:42:50;;;;;;;0.20;0.20;;;21.20;26.00;;;;;;6168566;28;20048;-41
2022/04/01 10:46:03;;;;;;;1.00;0.28;;;21.30;26.00;;;;;;6204256;27;20048;-45
2022/04/01 10:52:23;;;;;;;0.30;0.20;;;21.20;26.00;;;;;;6176424;27;20142;-44
2022/04/01 10:55:27;;;;;;;1.55;0.35;;;21.30;26.00;;;;;;6205494;27;22405;-46
2022/04/01 10:58:36;;;;;;;0.85;0.20;;;21.20;26.00;;;;;;6205452;28;21154;-47
2022/04/01 11:01:41;;;;;;;0.43;0.25;;;21.40;26.00;;;;;;6182291;27;40736;-44
2022/04/01 11:04:44;;;;;;;0.22;0.22;;;21.30;26.00;;;;;;6175319;27;20898;-48
2022/04/01 11:07:46;;;;;;;0.25;0.10;;;21.30;26.00;;;;;;6174821;28;20131;-44
2022/04/01 11:11:05;;;;;;;0.90;0.10;;;21.30;25.90;;;;;;6192473;27;21878;-44
2022/04/01 11:14:08;;;;;;;0.17;0.10;;;21.30;25.80;;;;;;6215261;27;20137;-45
2022/04/01 11:17:10;;;;;;;0.63;0.10;;;21.40;25.80;;;;;;6216723;27;20066;-45
2022/04/01 11:20:14;;;;;;;0.20;0.10;;;21.40;25.80;;;;;;6196848;27;20121;-44
2022/04/01 11:23:16;;;;;;;0.75;0.20;;;21.20;25.60;;;;;;6207684;27;22170;-44
2022/04/01 11:26:18;;;;;;;1.08;0.20;;;21.50;25.70;;;;;;6224560;27;20152;-43
2022/04/01 11:29:20;;;;;;;;;;;21.50;25.70;;;;;;6176945;27;20047;-44
2022/04/01 11:32:23;;;;;;;0.28;0.20;;;21.50;25.80;;;;;;6231885;27;19934;-47
2022/04/01 11:35:26;;;;;;;0.60;0.30;;;21.60;25.80;;;;;;6219065;27;21068;-44
2022/04/01 11:38:30;;;;;;;0.60;0.20;;;21.50;25.80;;;;;;6204350;28;21087;-45
2022/04/01 11:41:44;;;;;;;0.22;0.13;;;21.50;25.70;;;;;;6189622;28;20047;-43
2022/04/01 11:44:55;;;;;;;0.30;0.30;;;21.50;25.70;;;;;;6205973;27;20044;-43
2022/04/01 11:47:58;;;;;;;1.07;0.17;;;21.60;25.80;;;;;;6216348;27;22178;-43
2022/04/01 11:51:02;;;;;;;0.30;0.30;;;21.50;25.70;;;;;;6127765;28;20229;-42
2022/04/01 11:54:04;;;;;;;0.80;0.38;;;21.60;25.80;;;;;;6163414;28;20143;-44
2022/04/01 11:57:05;;;;;;;;;;;21.60;25.70;;;;;;6139371;27;20329;-43
2022/04/01 12:00:10;;;;;;;0.70;0.30;;;21.50;25.70;;;;;;6167763;27;19928;-42
2022/04/01 12:03:13;;;;;;;0.38;0.30;;;21.60;25.70;;;;;;6147045;27;20055;-44
2022/04/01 12:09:34;;;;;;;1.85;0.30;;;21.60;25.70;;;;;;6164349;27;20044;-42
2022/04/01 12:12:35;;;;;;;1.17;0.20;;;21.60;25.70;;;;;;6148788;28;20129;-42
2022/04/01 12:15:40;;;;;;;0.28;0.13;;;21.70;25.70;;;;;;6165182;27;20043;-43
2022/04/01 12:18:47;;;;;;;0.80;0.40;;;21.60;25.60;;;;;;6164885;27;20046;-43
2022/04/01 12:21:49;;;;;;;0.50;0.22;;;21.70;25.60;;;;;;6167734;27;20170;-44
2022/04/01 12:24:51;;;;;;;0.20;0.20;;;21.70;25.70;;;;;;6141883;27;20140;-41
2022/04/01 12:27:54;;;;;;;1.25;0.35;;;21.80;25.70;;;;;;6161058;28;20647;-39
2022/04/01 12:30:56;;;;;;;2.17;0.50;;;21.80;25.70;;;;;;6148879;28;21729;-40
2022/04/01 12:33:59;;;;;;;0.95;0.40;;;21.80;25.70;;;;;;6134956;28;20866;-41
2022/04/01 12:37:02;;;;;;;1.30;0.22;;;21.90;25.80;;;;;;6142379;28;20370;-42
2022/04/01 12:40:10;;;;;;;0.50;0.25;;;21.90;25.80;;;;;;6149023;27;20614;-41
2022/04/01 12:43:27;;;;;;;0.47;0.20;;;21.80;25.70;;;;;;6107038;27;20460;-42
2022/04/01 12:46:31;;;;;;;0.82;0.30;;;21.90;25.80;;;;;;6105729;27;20455;-41
2022/04/01 12:49:35;;;;;;;0.65;0.30;;;21.90;25.80;;;;;;6103027;28;21106;-41
2022/04/01 12:52:37;;;;;;;0.52;0.20;;;21.90;25.80;;;;;;6141380;28;20048;-42
2022/04/01 12:55:39;;;;;;;0.35;0.20;;;22.00;25.80;;;;;;6157941;28;21636;-41
2022/04/01 12:58:47;;;;;;;0.45;0.20;;;22.00;25.80;;;;;;6165081;28;20048;-40
2022/04/01 13:01:57;;;;;;;0.45;0.25;;;22.00;25.80;;;;;;6104382;28;20040;-41
2022/04/01 13:05:12;;;;;;;0.13;0.13;;;21.90;25.80;;;;;;6122583;28;20136;-41
2022/04/01 13:08:30;;;;;;;0.45;0.30;;;22.00;25.80;;;;;;6106573;27;20137;-39
2022/04/01 13:11:38;;;;;;;0.70;0.30;;;22.10;25.90;;;;;;6142375;27;20160;-43
2022/04/01 13:14:39;;;;;;;0.40;0.20;;;22.10;25.90;;;;;;6141998;27;20122;-40
2022/04/01 13:17:42;;;;;;;0.25;0.20;;;22.10;25.90;;;;;;6154418;27;20052;-40
2022/04/01 13:20:44;;;;;;;0.32;0.22;;;22.10;25.90;;;;;;6126591;28;20965;-40
2022/04/01 13:23:46;;;;;;;0.40;0.20;;;22.20;25.90;;;;;;6124357;27;20128;-41
2022/04/01 13:26:48;;;;;;;0.52;0.43;;;22.20;25.90;;;;;;6159275;27;20047;-40
2022/04/01 13:29:50;;;;;;;0.30;0.20;;;22.20;25.90;;;;;;6118038;28;20054;-42
2022/04/01 13:32:52;;;;;;;0.40;0.20;;;22.20;25.90;;;;;;6145629;28;20084;-43
2022/04/01 13:35:55;;;;;;;0.47;0.20;;;22.30;25.90;;;;;;6064988;28;20066;-41
2022/04/01 13:38:56;;;;;;;0.55;0.17;;;22.30;25.90;;;;;;6127633;27;20077;-42
2022/04/01 13:41:59;;;;;;;0.60;0.30;;;22.20;26.00;;;;;;6101803;28;20044;-40
2022/04/01 13:45:01;;;;;;;0.52;0.20;;;22.20;25.90;;;;;;6153559;27;20094;-41
2022/04/01 13:48:03;;;;;;;1.90;0.30;;;22.30;25.90;;;;;;6167373;27;20063;-42
2022/04/01 13:51:05;;;;;;;0.38;0.20;;;22.40;26.00;;;;;;6183439;27;20067;-40
2022/04/01 13:54:06;;;;;;;0.25;0.10;;;22.40;26.00;;;;;;6177037;27;20035;-42
2022/04/01 13:57:10;;;;;;;0.13;0.10;;;22.40;26.00;;;;;;6157229;27;21155;-40
2022/04/01 14:00:13;;;;;;;0.47;0.30;;;22.40;26.00;;;;;;6148249;27;20035;-41
2022/04/01 14:03:18;;;;;;;0.25;0.20;;;22.40;26.00;;;;;;6129737;28;20037;-40
2022/04/01 14:06:21;;;;;;;1.25;0.20;;;22.40;26.00;;;;;;6154788;27;20043;-40
2022/04/01 14:09:23;;;;;;;1.25;0.30;;;22.50;26.00;;;;;;6085348;27;20039;-40
2022/04/01 14:12:44;;;;;;;0.20;0.10;;;22.50;26.10;;;;;;6139171;28;20886;-42
2022/04/01 14:15:46;;;;;;;0.35;0.25;;;22.50;26.00;;;;;;6157279;27;20162;-40
2022/04/01 14:18:48;;;;;;;0.50;0.20;;;22.50;26.00;;;;;;6167886;27;20051;-40
2022/04/01 14:21:50;;;;;;;0.40;0.20;;;22.50;26.00;;;;;;6157658;27;20039;-40
2022/04/01 14:24:52;;;;;;;0.40;0.20;;;22.40;25.90;;;;;;6166213;27;20048;-40
2022/04/01 14:27:53;;;;;;;0.20;0.20;;;22.40;25.90;;;;;;6183186;27;20205;-40
2022/04/01 14:30:55;;;;;;;0.10;0.10;;;22.30;25.90;;;;;;6200274;27;20108;-41
2022/04/01 14:33:57;;;;;;;1.05;0.20;;;22.30;25.90;;;;;;6178051;28;20040;-40
2022/04/01 14:37:00;;;;;;;0.35;0.15;;;22.40;25.90;;;;;;6115724;27;22567;-40
2022/04/01 14:40:02;;;;;;;0.40;0.30;;;22.40;25.90;;;;;;6194023;27;20043;-40
2022/04/01 14:43:04;;;;;;;0.30;0.28;;;22.50;26.10;;;;;;6154928;28;20070;-40
2022/04/01 14:46:07;;;;;;;0.50;0.20;;;22.40;26.00;;;;;;6147031;28;20128;-40
2022/04/01 14:49:08;;;;;;;0.63;0.20;;;22.40;26.00;;;;;;6156338;27;20124;-40
2022/04/01 14:52:10;;;;;;;1.45;0.30;;;22.40;26.00;;;;;;6170750;27;20064;-40
2022/04/01 14:55:12;;;;;;;1.27;0.30;;;22.40;26.00;;;;;;6162182;28;22185;-41
2022/04/01 14:58:14;;;;;;;0.30;0.20;;;22.40;26.10;;;;;;6158857;27;20071;-40
2022/04/01 15:01:15;;;;;;;0.68;0.40;;;22.40;26.10;;;;;;6186849;27;20163;-40
2022/04/01 15:04:17;;;;;;;3.40;0.30;;;22.40;26.10;;;;;;6187109;27;20040;-39
2022/04/01 15:07:20;;;;;;;1.17;0.20;;;22.50;26.20;;;;;;6151507;28;21060;-39
2022/04/01 15:10:26;;;;;;;1.00;0.20;;;22.40;26.20;;;;;;6174233;28;21325;-39
2022/04/01 15:13:29;;;;;;;0.20;0.20;;;22.50;26.20;;;;;;6160934;28;21596;-40
2022/04/01 15:16:31;;;;;;;1.35;0.30;;;22.50;26.30;;;;;;6193420;28;20075;-40
2022/04/01 15:19:35;;;;;;;0.22;0.20;;;22.50;26.30;;;;;;6181585;28;20055;-43
2022/04/01 15:22:39;;;;;;;0.65;0.35;;;22.50;26.30;;;;;;6174429;27;20415;-41
2022/04/01 15:25:40;;;;;;;1.55;0.10;;;22.50;26.30;;;;;;6164923;27;20906;-40
2022/04/01 15:28:42;;;;;;;0.45;0.20;;;22.60;26.40;;;;;;6143736;28;20040;-40
2022/04/01 15:31:44;;;;;;;0.75;0.20;;;22.60;26.50;;;;;;6171408;27;20079;-40
2022/04/01 15:34:46;;;;;;;0.50;0.20;;;22.80;26.50;;;;;;6138053;28;20228;-39
2022/04/01 15:37:54;;;;;;;0.40;0.20;;;22.60;26.40;;;;;;6162564;27;20424;-41
2022/04/01 15:41:04;;;;;;;0.25;0.10;;;22.70;26.50;;;;;;6160375;27;20047;-40
2022/04/01 15:44:12;;;;;;;3.22;0.22;;;22.70;26.50;;;;;;6169683;27;20091;-41
2022/04/01 15:47:15;;;;;;;2.22;0.20;;;22.70;26.50;;;;;;6176654;27;20066;-41
2022/04/01 15:50:17;;;;;;;0.25;0.10;;;22.70;26.60;;;;;;6171728;28;20151;-40
2022/04/01 15:53:21;;;;;;;0.30;0.20;;;22.60;26.50;;;;;;6139311;28;20047;-41
2022/04/01 15:56:23;;;;;;;0.75;0.10;;;22.70;26.60;;;;;;6202217;28;20039;-41
2022/04/01 15:59:24;;;;;;;0.85;0.20;;;22.70;26.70;;;;;;6211543;27;20226;-41
2022/04/01 16:02:29;;;;;;;0.43;0.22;;;22.70;26.70;;;;;;6222696;27;20072;-41
2022/04/01 16:05:33;;;;;;;0.20;0.10;;;22.70;26.90;;;;;;6203051;27;20149;-42
2022/04/01 16:08:38;;;;;;;0.10;0.10;;;22.60;26.80;;;;;;6195253;27;20074;-41
2022/04/01 16:11:41;;;;;;;0.30;0.20;;;22.60;26.90;;;;;;6226213;28;20079;-41
2022/04/01 16:14:44;;;;;;;0.43;0.17;;;22.60;26.90;;;;;;6230381;28;20047;-42
2022/04/01 16:17:46;;;;;;;0.20;0.10;;;22.60;27.00;;;;;;6248868;27;21017;-43
2022/04/01 16:20:50;;;;;;;0.20;0.10;;;22.60;27.20;;;;;;6236353;28;20075;-44
2022/04/01 16:23:54;;;;;;;0.20;0.10;;;22.60;27.20;;;;;;6228564;28;20926;-42